sensor_id;sensor_type;location;lat;lon;timestamp;P1;durP1;ratioP1;P2;durP2;ratioP2
48285;SDS011;34102;47.716;10.296;2023-04-09T00:01:47;23.60;;;16.13;;
48285;SDS011;34102;47.716;10.296;2023-04-09T00:04:12;24.52;;;16.58;;
48285;SDS011;34102;47.716;10.296;2023-04-09T00:06:38;25.55;;;17.15;;
48285;SDS011;34102;47.716;10.296;2023-04-09T00:09:03;25.42;;;17.02;;
48285;SDS011;34102;47.716;10.296;2023-04-09T00:11:28;24.10;;;16.23;;
48285;SDS011;34102;47.716;10.296;2023-04-09T00:13:54;24.98;;;17.00;;
48285;SDS011;34102;47.716;10.296;2023-04-09T00:16:19;24.15;;;17.20;;
48285;SDS011;34102;47.716;10.296;2023-04-09T00:18:45;23.90;;;16.45;;
48285;SDS011;34102;47.716;10.296;2023-04-09T00:21:10;22.83;;;15.23;;
48285;SDS011;34102;47.716;10.296;2023-04-09T00:23:35;24.58;;;16.70;;
48285;SDS011;34102;47.716;10.296;2023-04-09T00:26:01;26.23;;;16.80;;
48285;SDS011;34102;47.716;10.296;2023-04-09T00:28:26;26.25;;;17.15;;
48285;SDS011;34102;47.716;10.296;2023-04-09T00:30:52;26.73;;;18.48;;
48285;SDS011;34102;47.716;10.296;2023-04-09T00:33:17;26.05;;;16.88;;
48285;SDS011;34102;47.716;10.296;2023-04-09T00:35:42;23.63;;;16.33;;
48285;SDS011;34102;47.716;10.296;2023-04-09T00:38:08;26.58;;;18.10;;
48285;SDS011;34102;47.716;10.296;2023-04-09T00:40:33;24.58;;;16.98;;
48285;SDS011;34102;47.716;10.296;2023-04-09T00:42:59;25.50;;;17.08;;
48285;SDS011;34102;47.716;10.296;2023-04-09T00:45:26;24.13;;;16.83;;
48285;SDS011;34102;47.716;10.296;2023-04-09T00:47:51;26.95;;;16.05;;
48285;SDS011;34102;47.716;10.296;2023-04-09T00:50:17;27.00;;;17.15;;
48285;SDS011;34102;47.716;10.296;2023-04-09T00:52:42;28.73;;;18.20;;
48285;SDS011;34102;47.716;10.296;2023-04-09T00:55:08;28.42;;;17.48;;
48285;SDS011;34102;47.716;10.296;2023-04-09T00:57:33;28.25;;;17.98;;
48285;SDS011;34102;47.716;10.296;2023-04-09T00:59:59;45.50;;;24.63;;
48285;SDS011;34102;47.716;10.296;2023-04-09T01:02:25;26.85;;;16.83;;
48285;SDS011;34102;47.716;10.296;2023-04-09T01:04:50;26.98;;;17.23;;
48285;SDS011;34102;47.716;10.296;2023-04-09T01:07:21;25.20;;;15.88;;
48285;SDS011;34102;47.716;10.296;2023-04-09T01:09:50;25.27;;;16.52;;
48285;SDS011;34102;47.716;10.296;2023-04-09T01:13:03;22.77;;;15.80;;
48285;SDS011;34102;47.716;10.296;2023-04-09T01:15:10;24.15;;;15.32;;
48285;SDS011;34102;47.716;10.296;2023-04-09T01:23:04;21.48;;;14.50;;
48285;SDS011;34102;47.716;10.296;2023-04-09T01:25:49;21.48;;;15.18;;
48285;SDS011;34102;47.716;10.296;2023-04-09T01:28:34;21.48;;;15.10;;
48285;SDS011;34102;47.716;10.296;2023-04-09T01:31:10;22.67;;;15.13;;
48285;SDS011;34102;47.716;10.296;2023-04-09T01:33:38;22.73;;;15.93;;
48285;SDS011;34102;47.716;10.296;2023-04-09T01:36:04;21.38;;;14.60;;
48285;SDS011;34102;47.716;10.296;2023-04-09T01:38:30;24.15;;;15.95;;
48285;SDS011;34102;47.716;10.296;2023-04-09T01:40:56;23.88;;;16.60;;
48285;SDS011;34102;47.716;10.296;2023-04-09T01:43:23;19.85;;;14.32;;
48285;SDS011;34102;47.716;10.296;2023-04-09T01:45:49;25.25;;;16.73;;
48285;SDS011;34102;47.716;10.296;2023-04-09T01:48:15;23.67;;;15.77;;
48285;SDS011;34102;47.716;10.296;2023-04-09T01:50:40;22.80;;;15.30;;
48285;SDS011;34102;47.716;10.296;2023-04-09T01:53:06;21.05;;;14.63;;
48285;SDS011;34102;47.716;10.296;2023-04-09T01:55:31;23.05;;;14.82;;
48285;SDS011;34102;47.716;10.296;2023-04-09T01:57:57;21.50;;;15.30;;
48285;SDS011;34102;47.716;10.296;2023-04-09T02:00:23;20.48;;;15.27;;
48285;SDS011;34102;47.716;10.296;2023-04-09T02:02:54;22.77;;;15.27;;
48285;SDS011;34102;47.716;10.296;2023-04-09T02:05:20;19.45;;;13.73;;
48285;SDS011;34102;47.716;10.296;2023-04-09T02:07:50;19.95;;;14.15;;
48285;SDS011;34102;47.716;10.296;2023-04-09T02:10:16;23.70;;;16.60;;
48285;SDS011;34102;47.716;10.296;2023-04-09T02:12:48;20.50;;;15.00;;
48285;SDS011;34102;47.716;10.296;2023-04-09T02:15:14;20.88;;;14.27;;
48285;SDS011;34102;47.716;10.296;2023-04-09T02:17:39;21.73;;;15.18;;
48285;SDS011;34102;47.716;10.296;2023-04-09T02:20:05;20.83;;;14.60;;
48285;SDS011;34102;47.716;10.296;2023-04-09T02:22:31;20.23;;;14.02;;
48285;SDS011;34102;47.716;10.296;2023-04-09T02:24:57;18.92;;;13.02;;
48285;SDS011;34102;47.716;10.296;2023-04-09T02:27:23;17.45;;;13.32;;
48285;SDS011;34102;47.716;10.296;2023-04-09T02:29:49;19.17;;;14.20;;
48285;SDS011;34102;47.716;10.296;2023-04-09T02:32:14;19.15;;;13.90;;
48285;SDS011;34102;47.716;10.296;2023-04-09T02:34:39;20.00;;;13.82;;
48285;SDS011;34102;47.716;10.296;2023-04-09T02:37:05;18.38;;;13.55;;
48285;SDS011;34102;47.716;10.296;2023-04-09T02:39:31;19.42;;;13.65;;
48285;SDS011;34102;47.716;10.296;2023-04-09T02:41:56;19.13;;;13.38;;
48285;SDS011;34102;47.716;10.296;2023-04-09T02:44:22;19.77;;;13.90;;
48285;SDS011;34102;47.716;10.296;2023-04-09T02:46:47;20.65;;;14.15;;
48285;SDS011;34102;47.716;10.296;2023-04-09T02:49:16;20.02;;;14.40;;
48285;SDS011;34102;47.716;10.296;2023-04-09T02:51:42;20.42;;;14.50;;
48285;SDS011;34102;47.716;10.296;2023-04-09T02:54:07;18.60;;;13.77;;
48285;SDS011;34102;47.716;10.296;2023-04-09T02:56:32;22.63;;;15.25;;
48285;SDS011;34102;47.716;10.296;2023-04-09T02:58:58;21.48;;;14.30;;
48285;SDS011;34102;47.716;10.296;2023-04-09T03:01:23;22.60;;;14.70;;
48285;SDS011;34102;47.716;10.296;2023-04-09T03:03:49;22.73;;;15.55;;
48285;SDS011;34102;47.716;10.296;2023-04-09T03:06:14;22.92;;;16.13;;
48285;SDS011;34102;47.716;10.296;2023-04-09T03:08:39;23.83;;;16.23;;
48285;SDS011;34102;47.716;10.296;2023-04-09T03:11:05;24.50;;;16.65;;
48285;SDS011;34102;47.716;10.296;2023-04-09T03:13:30;24.23;;;15.02;;
48285;SDS011;34102;47.716;10.296;2023-04-09T03:15:56;26.90;;;17.83;;
48285;SDS011;34102;47.716;10.296;2023-04-09T03:18:21;27.35;;;18.73;;
48285;SDS011;34102;47.716;10.296;2023-04-09T03:20:47;25.30;;;16.63;;
48285;SDS011;34102;47.716;10.296;2023-04-09T03:23:13;23.45;;;15.85;;
48285;SDS011;34102;47.716;10.296;2023-04-09T03:25:43;21.63;;;15.35;;
48285;SDS011;34102;47.716;10.296;2023-04-09T03:28:14;24.45;;;15.65;;
48285;SDS011;34102;47.716;10.296;2023-04-09T03:30:50;22.20;;;15.40;;
48285;SDS011;34102;47.716;10.296;2023-04-09T03:33:15;21.80;;;15.23;;
48285;SDS011;34102;47.716;10.296;2023-04-09T03:36:06;25.02;;;14.98;;
48285;SDS011;34102;47.716;10.296;2023-04-09T03:38:53;22.30;;;15.02;;
48285;SDS011;34102;47.716;10.296;2023-04-09T03:41:34;21.15;;;14.23;;
48285;SDS011;34102;47.716;10.296;2023-04-09T03:44:03;22.75;;;14.25;;
48285;SDS011;34102;47.716;10.296;2023-04-09T03:46:35;21.33;;;14.45;;
48285;SDS011;34102;47.716;10.296;2023-04-09T03:49:01;23.58;;;15.48;;
48285;SDS011;34102;47.716;10.296;2023-04-09T03:51:35;22.05;;;15.40;;
48285;SDS011;34102;47.716;10.296;2023-04-09T03:54:01;22.08;;;15.45;;
48285;SDS011;34102;47.716;10.296;2023-04-09T03:56:26;25.25;;;16.38;;
48285;SDS011;34102;47.716;10.296;2023-04-09T03:58:52;23.48;;;16.02;;
48285;SDS011;34102;47.716;10.296;2023-04-09T04:01:21;23.77;;;16.42;;
48285;SDS011;34102;47.716;10.296;2023-04-09T04:03:54;25.08;;;16.20;;
48285;SDS011;34102;47.716;10.296;2023-04-09T04:06:24;24.05;;;16.35;;
48285;SDS011;34102;47.716;10.296;2023-04-09T04:09:15;26.58;;;16.75;;
48285;SDS011;34102;47.716;10.296;2023-04-09T04:11:56;27.30;;;17.67;;
48285;SDS011;34102;47.716;10.296;2023-04-09T04:14:29;26.30;;;16.08;;
48285;SDS011;34102;47.716;10.296;2023-04-09T04:17:02;28.35;;;17.63;;
48285;SDS011;34102;47.716;10.296;2023-04-09T04:19:29;26.33;;;16.33;;
48285;SDS011;34102;47.716;10.296;2023-04-09T04:21:55;26.58;;;16.45;;
48285;SDS011;34102;47.716;10.296;2023-04-09T04:24:21;25.83;;;16.25;;
48285;SDS011;34102;47.716;10.296;2023-04-09T04:26:46;26.25;;;16.30;;
48285;SDS011;34102;47.716;10.296;2023-04-09T04:29:15;29.05;;;16.20;;
48285;SDS011;34102;47.716;10.296;2023-04-09T04:32:00;25.42;;;16.42;;
48285;SDS011;34102;47.716;10.296;2023-04-09T04:34:32;26.58;;;15.93;;
48285;SDS011;34102;47.716;10.296;2023-04-09T04:37:04;26.60;;;15.20;;
48285;SDS011;34102;47.716;10.296;2023-04-09T04:39:32;26.13;;;16.52;;
48285;SDS011;34102;47.716;10.296;2023-04-09T04:42:05;25.55;;;16.10;;
48285;SDS011;34102;47.716;10.296;2023-04-09T04:44:31;26.45;;;17.02;;
48285;SDS011;34102;47.716;10.296;2023-04-09T04:47:10;25.33;;;15.77;;
48285;SDS011;34102;47.716;10.296;2023-04-09T04:49:36;27.85;;;16.58;;
48285;SDS011;34102;47.716;10.296;2023-04-09T04:52:03;30.67;;;17.48;;
48285;SDS011;34102;47.716;10.296;2023-04-09T04:54:29;27.52;;;16.42;;
48285;SDS011;34102;47.716;10.296;2023-04-09T04:56:56;28.70;;;17.55;;
48285;SDS011;34102;47.716;10.296;2023-04-09T04:59:51;26.08;;;15.75;;
48285;SDS011;34102;47.716;10.296;2023-04-09T05:02:17;26.23;;;15.73;;
48285;SDS011;34102;47.716;10.296;2023-04-09T05:05:10;26.77;;;16.40;;
48285;SDS011;34102;47.716;10.296;2023-04-09T05:07:42;28.13;;;16.13;;
48285;SDS011;34102;47.716;10.296;2023-04-09T05:10:08;27.75;;;16.83;;
48285;SDS011;34102;47.716;10.296;2023-04-09T05:12:37;25.73;;;15.85;;
48285;SDS011;34102;47.716;10.296;2023-04-09T05:15:03;25.48;;;15.73;;
48285;SDS011;34102;47.716;10.296;2023-04-09T05:17:29;27.65;;;16.48;;
48285;SDS011;34102;47.716;10.296;2023-04-09T05:19:54;28.13;;;17.15;;
48285;SDS011;34102;47.716;10.296;2023-04-09T05:22:28;26.85;;;16.13;;
48285;SDS011;34102;47.716;10.296;2023-04-09T05:25:19;29.35;;;16.95;;
48285;SDS011;34102;47.716;10.296;2023-04-09T05:27:44;25.38;;;15.90;;
48285;SDS011;34102;47.716;10.296;2023-04-09T05:30:10;31.58;;;19.10;;
48285;SDS011;34102;47.716;10.296;2023-04-09T05:33:01;28.50;;;16.67;;
48285;SDS011;34102;47.716;10.296;2023-04-09T05:35:51;27.42;;;15.90;;
48285;SDS011;34102;47.716;10.296;2023-04-09T05:38:17;24.10;;;15.32;;
48285;SDS011;34102;47.716;10.296;2023-04-09T05:40:48;25.60;;;16.35;;
48285;SDS011;34102;47.716;10.296;2023-04-09T05:43:14;28.05;;;17.02;;
48285;SDS011;34102;47.716;10.296;2023-04-09T05:45:42;24.58;;;16.33;;
48285;SDS011;34102;47.716;10.296;2023-04-09T05:48:07;27.52;;;16.98;;
48285;SDS011;34102;47.716;10.296;2023-04-09T05:50:33;26.73;;;15.48;;
48285;SDS011;34102;47.716;10.296;2023-04-09T05:52:59;26.08;;;15.52;;
48285;SDS011;34102;47.716;10.296;2023-04-09T05:55:31;23.67;;;14.77;;
48285;SDS011;34102;47.716;10.296;2023-04-09T05:57:59;25.92;;;15.65;;
48285;SDS011;34102;47.716;10.296;2023-04-09T06:00:25;29.35;;;17.40;;
48285;SDS011;34102;47.716;10.296;2023-04-09T06:02:50;26.98;;;15.80;;
48285;SDS011;34102;47.716;10.296;2023-04-09T06:05:15;27.70;;;16.50;;
48285;SDS011;34102;47.716;10.296;2023-04-09T06:07:41;28.13;;;16.42;;
48285;SDS011;34102;47.716;10.296;2023-04-09T06:10:06;24.58;;;14.77;;
48285;SDS011;34102;47.716;10.296;2023-04-09T06:12:33;24.33;;;15.80;;
48285;SDS011;34102;47.716;10.296;2023-04-09T06:14:58;27.23;;;16.80;;
48285;SDS011;34102;47.716;10.296;2023-04-09T06:17:25;26.75;;;15.65;;
48285;SDS011;34102;47.716;10.296;2023-04-09T06:19:50;24.83;;;15.23;;
48285;SDS011;34102;47.716;10.296;2023-04-09T06:22:16;27.45;;;16.75;;
48285;SDS011;34102;47.716;10.296;2023-04-09T06:24:41;27.00;;;16.58;;
48285;SDS011;34102;47.716;10.296;2023-04-09T06:27:07;23.92;;;16.05;;
48285;SDS011;34102;47.716;10.296;2023-04-09T06:29:32;25.13;;;16.25;;
48285;SDS011;34102;47.716;10.296;2023-04-09T06:31:58;24.42;;;16.73;;
48285;SDS011;34102;47.716;10.296;2023-04-09T06:34:23;24.35;;;15.95;;
48285;SDS011;34102;47.716;10.296;2023-04-09T06:36:48;25.60;;;16.13;;
48285;SDS011;34102;47.716;10.296;2023-04-09T06:39:14;25.15;;;15.48;;
48285;SDS011;34102;47.716;10.296;2023-04-09T06:41:39;25.33;;;16.13;;
48285;SDS011;34102;47.716;10.296;2023-04-09T06:44:20;29.13;;;16.67;;
48285;SDS011;34102;47.716;10.296;2023-04-09T06:46:46;43.30;;;25.55;;
48285;SDS011;34102;47.716;10.296;2023-04-09T06:49:11;25.52;;;17.33;;
48285;SDS011;34102;47.716;10.296;2023-04-09T06:51:37;24.83;;;16.10;;
48285;SDS011;34102;47.716;10.296;2023-04-09T06:54:02;23.92;;;15.65;;
48285;SDS011;34102;47.716;10.296;2023-04-09T06:56:27;29.25;;;18.88;;
48285;SDS011;34102;47.716;10.296;2023-04-09T06:58:53;24.17;;;16.17;;
48285;SDS011;34102;47.716;10.296;2023-04-09T07:01:18;23.63;;;14.48;;
48285;SDS011;34102;47.716;10.296;2023-04-09T07:03:44;24.52;;;16.02;;
48285;SDS011;34102;47.716;10.296;2023-04-09T07:06:10;23.75;;;15.00;;
48285;SDS011;34102;47.716;10.296;2023-04-09T07:08:35;46.28;;;26.98;;
48285;SDS011;34102;47.716;10.296;2023-04-09T07:11:01;25.88;;;16.27;;
48285;SDS011;34102;47.716;10.296;2023-04-09T07:13:27;22.70;;;14.77;;
48285;SDS011;34102;47.716;10.296;2023-04-09T07:15:53;18.58;;;13.32;;
48285;SDS011;34102;47.716;10.296;2023-04-09T07:18:18;20.58;;;13.52;;
48285;SDS011;34102;47.716;10.296;2023-04-09T07:20:44;18.10;;;11.73;;
48285;SDS011;34102;47.716;10.296;2023-04-09T07:23:09;21.10;;;14.00;;
48285;SDS011;34102;47.716;10.296;2023-04-09T07:25:35;19.00;;;13.13;;
48285;SDS011;34102;47.716;10.296;2023-04-09T07:28:01;25.67;;;17.15;;
48285;SDS011;34102;47.716;10.296;2023-04-09T07:30:27;23.70;;;15.45;;
48285;SDS011;34102;47.716;10.296;2023-04-09T07:32:52;22.73;;;15.55;;
48285;SDS011;34102;47.716;10.296;2023-04-09T07:35:20;23.15;;;15.63;;
48285;SDS011;34102;47.716;10.296;2023-04-09T07:37:45;22.70;;;15.45;;
48285;SDS011;34102;47.716;10.296;2023-04-09T07:40:11;24.60;;;15.75;;
48285;SDS011;34102;47.716;10.296;2023-04-09T07:42:37;21.88;;;15.13;;
48285;SDS011;34102;47.716;10.296;2023-04-09T07:45:03;21.15;;;14.73;;
48285;SDS011;34102;47.716;10.296;2023-04-09T07:47:28;19.85;;;14.15;;
48285;SDS011;34102;47.716;10.296;2023-04-09T07:49:54;23.95;;;15.45;;
48285;SDS011;34102;47.716;10.296;2023-04-09T07:52:19;20.60;;;14.05;;
48285;SDS011;34102;47.716;10.296;2023-04-09T07:54:45;21.80;;;14.05;;
48285;SDS011;34102;47.716;10.296;2023-04-09T07:57:10;18.92;;;13.25;;
48285;SDS011;34102;47.716;10.296;2023-04-09T07:59:35;19.75;;;12.88;;
48285;SDS011;34102;47.716;10.296;2023-04-09T08:02:01;19.00;;;13.38;;
48285;SDS011;34102;47.716;10.296;2023-04-09T08:04:28;19.23;;;13.55;;
48285;SDS011;34102;47.716;10.296;2023-04-09T08:06:53;18.23;;;13.00;;
48285;SDS011;34102;47.716;10.296;2023-04-09T08:09:19;17.65;;;12.20;;
48285;SDS011;34102;47.716;10.296;2023-04-09T08:11:45;19.33;;;12.45;;
48285;SDS011;34102;47.716;10.296;2023-04-09T08:14:11;17.10;;;11.95;;
48285;SDS011;34102;47.716;10.296;2023-04-09T08:16:38;17.77;;;12.38;;
48285;SDS011;34102;47.716;10.296;2023-04-09T08:19:04;18.40;;;12.95;;
48285;SDS011;34102;47.716;10.296;2023-04-09T08:21:29;16.98;;;11.10;;
48285;SDS011;34102;47.716;10.296;2023-04-09T08:23:56;16.50;;;11.77;;
48285;SDS011;34102;47.716;10.296;2023-04-09T08:26:25;15.70;;;10.82;;
48285;SDS011;34102;47.716;10.296;2023-04-09T08:28:50;13.18;;;10.02;;
48285;SDS011;34102;47.716;10.296;2023-04-09T08:31:16;12.75;;;9.25;;
48285;SDS011;34102;47.716;10.296;2023-04-09T08:33:41;13.70;;;9.90;;
48285;SDS011;34102;47.716;10.296;2023-04-09T08:36:07;12.20;;;9.07;;
48285;SDS011;34102;47.716;10.296;2023-04-09T08:38:33;13.60;;;9.95;;
48285;SDS011;34102;47.716;10.296;2023-04-09T08:40:58;15.10;;;9.65;;
48285;SDS011;34102;47.716;10.296;2023-04-09T08:43:23;11.45;;;8.43;;
48285;SDS011;34102;47.716;10.296;2023-04-09T08:45:49;11.07;;;8.23;;
48285;SDS011;34102;47.716;10.296;2023-04-09T08:48:15;11.18;;;7.95;;
48285;SDS011;34102;47.716;10.296;2023-04-09T08:50:41;12.07;;;8.68;;
48285;SDS011;34102;47.716;10.296;2023-04-09T08:53:07;11.10;;;7.88;;
48285;SDS011;34102;47.716;10.296;2023-04-09T08:55:32;9.52;;;7.22;;
48285;SDS011;34102;47.716;10.296;2023-04-09T08:58:07;10.73;;;7.88;;
48285;SDS011;34102;47.716;10.296;2023-04-09T09:00:33;11.27;;;8.02;;
48285;SDS011;34102;47.716;10.296;2023-04-09T09:05:44;9.27;;;6.97;;
48285;SDS011;34102;47.716;10.296;2023-04-09T09:08:11;9.77;;;6.78;;
48285;SDS011;34102;47.716;10.296;2023-04-09T09:10:37;10.55;;;7.80;;
48285;SDS011;34102;47.716;10.296;2023-04-09T09:13:25;10.27;;;7.70;;
48285;SDS011;34102;47.716;10.296;2023-04-09T09:15:52;9.00;;;7.15;;
48285;SDS011;34102;47.716;10.296;2023-04-09T09:18:21;8.70;;;7.18;;
48285;SDS011;34102;47.716;10.296;2023-04-09T09:21:14;9.25;;;7.20;;
48285;SDS011;34102;47.716;10.296;2023-04-09T09:23:39;8.40;;;6.75;;
48285;SDS011;34102;47.716;10.296;2023-04-09T09:26:19;6.82;;;5.88;;
48285;SDS011;34102;47.716;10.296;2023-04-09T09:28:46;6.72;;;5.45;;
48285;SDS011;34102;47.716;10.296;2023-04-09T09:31:12;7.88;;;5.72;;
48285;SDS011;34102;47.716;10.296;2023-04-09T09:33:38;7.40;;;5.45;;
48285;SDS011;34102;47.716;10.296;2023-04-09T09:36:03;6.97;;;5.53;;
48285;SDS011;34102;47.716;10.296;2023-04-09T09:38:29;5.82;;;4.93;;
48285;SDS011;34102;47.716;10.296;2023-04-09T09:40:56;7.57;;;6.20;;
48285;SDS011;34102;47.716;10.296;2023-04-09T09:43:23;6.88;;;5.60;;
48285;SDS011;34102;47.716;10.296;2023-04-09T09:45:48;7.18;;;5.60;;
48285;SDS011;34102;47.716;10.296;2023-04-09T09:48:14;7.00;;;5.68;;
48285;SDS011;34102;47.716;10.296;2023-04-09T09:50:39;5.85;;;4.72;;
48285;SDS011;34102;47.716;10.296;2023-04-09T09:53:07;7.80;;;5.40;;
48285;SDS011;34102;47.716;10.296;2023-04-09T09:55:33;6.40;;;4.53;;
48285;SDS011;34102;47.716;10.296;2023-04-09T09:58:01;14.73;;;8.10;;
48285;SDS011;34102;47.716;10.296;2023-04-09T10:00:28;6.40;;;4.43;;
48285;SDS011;34102;47.716;10.296;2023-04-09T10:02:56;6.32;;;4.63;;
48285;SDS011;34102;47.716;10.296;2023-04-09T10:05:23;6.15;;;4.50;;
48285;SDS011;34102;47.716;10.296;2023-04-09T10:07:54;6.10;;;4.47;;
48285;SDS011;34102;47.716;10.296;2023-04-09T10:10:21;5.18;;;3.53;;
48285;SDS011;34102;47.716;10.296;2023-04-09T10:12:47;3.63;;;2.97;;
48285;SDS011;34102;47.716;10.296;2023-04-09T10:15:12;3.75;;;3.20;;
48285;SDS011;34102;47.716;10.296;2023-04-09T10:17:38;5.50;;;3.83;;
48285;SDS011;34102;47.716;10.296;2023-04-09T10:20:09;5.47;;;3.88;;
48285;SDS011;34102;47.716;10.296;2023-04-09T10:22:35;4.20;;;3.35;;
48285;SDS011;34102;47.716;10.296;2023-04-09T10:25:02;4.50;;;3.90;;
48285;SDS011;34102;47.716;10.296;2023-04-09T10:27:28;6.05;;;4.25;;
48285;SDS011;34102;47.716;10.296;2023-04-09T10:29:53;5.05;;;3.67;;
48285;SDS011;34102;47.716;10.296;2023-04-09T10:32:19;6.47;;;3.88;;
48285;SDS011;34102;47.716;10.296;2023-04-09T10:34:50;4.68;;;3.28;;
48285;SDS011;34102;47.716;10.296;2023-04-09T10:37:25;5.13;;;3.30;;
48285;SDS011;34102;47.716;10.296;2023-04-09T10:39:51;3.45;;;2.83;;
48285;SDS011;34102;47.716;10.296;2023-04-09T10:42:18;4.40;;;3.28;;
48285;SDS011;34102;47.716;10.296;2023-04-09T10:44:46;3.88;;;2.53;;
48285;SDS011;34102;47.716;10.296;2023-04-09T10:47:31;3.55;;;2.70;;
48285;SDS011;34102;47.716;10.296;2023-04-09T10:49:58;4.05;;;2.67;;
48285;SDS011;34102;47.716;10.296;2023-04-09T10:52:38;3.08;;;2.33;;
48285;SDS011;34102;47.716;10.296;2023-04-09T10:55:04;3.72;;;2.67;;
48285;SDS011;34102;47.716;10.296;2023-04-09T10:57:30;2.78;;;2.17;;
48285;SDS011;34102;47.716;10.296;2023-04-09T10:59:56;3.45;;;2.40;;
48285;SDS011;34102;47.716;10.296;2023-04-09T11:04:55;3.60;;;2.63;;
48285;SDS011;34102;47.716;10.296;2023-04-09T11:09:50;2.90;;;2.35;;
48285;SDS011;34102;47.716;10.296;2023-04-09T11:12:15;3.53;;;2.40;;
48285;SDS011;34102;47.716;10.296;2023-04-09T11:14:41;4.35;;;2.35;;
48285;SDS011;34102;47.716;10.296;2023-04-09T11:17:06;2.97;;;2.40;;
48285;SDS011;34102;47.716;10.296;2023-04-09T11:19:32;3.60;;;2.72;;
48285;SDS011;34102;47.716;10.296;2023-04-09T11:21:57;3.20;;;2.42;;
48285;SDS011;34102;47.716;10.296;2023-04-09T11:24:23;2.65;;;2.03;;
48285;SDS011;34102;47.716;10.296;2023-04-09T11:26:48;2.42;;;1.85;;
48285;SDS011;34102;47.716;10.296;2023-04-09T11:29:14;2.53;;;1.88;;
48285;SDS011;34102;47.716;10.296;2023-04-09T11:31:43;3.60;;;2.55;;
48285;SDS011;34102;47.716;10.296;2023-04-09T11:34:09;3.10;;;2.10;;
48285;SDS011;34102;47.716;10.296;2023-04-09T11:36:34;2.70;;;1.90;;
48285;SDS011;34102;47.716;10.296;2023-04-09T11:39:03;2.80;;;2.20;;
48285;SDS011;34102;47.716;10.296;2023-04-09T11:41:35;2.92;;;2.00;;
48285;SDS011;34102;47.716;10.296;2023-04-09T11:44:04;2.67;;;1.83;;
48285;SDS011;34102;47.716;10.296;2023-04-09T11:46:33;2.67;;;2.03;;
48285;SDS011;34102;47.716;10.296;2023-04-09T11:48:59;3.10;;;2.05;;
48285;SDS011;34102;47.716;10.296;2023-04-09T11:51:25;1.95;;;1.60;;
48285;SDS011;34102;47.716;10.296;2023-04-09T11:53:51;2.85;;;1.90;;
48285;SDS011;34102;47.716;10.296;2023-04-09T11:56:16;2.15;;;1.73;;
48285;SDS011;34102;47.716;10.296;2023-04-09T11:58:45;2.60;;;1.95;;
48285;SDS011;34102;47.716;10.296;2023-04-09T12:01:11;3.35;;;1.55;;
48285;SDS011;34102;47.716;10.296;2023-04-09T12:03:37;2.05;;;1.80;;
48285;SDS011;34102;47.716;10.296;2023-04-09T12:06:03;2.97;;;1.80;;
48285;SDS011;34102;47.716;10.296;2023-04-09T12:08:29;1.50;;;1.27;;
48285;SDS011;34102;47.716;10.296;2023-04-09T12:10:55;2.53;;;2.05;;
48285;SDS011;34102;47.716;10.296;2023-04-09T12:13:20;3.63;;;1.48;;
48285;SDS011;34102;47.716;10.296;2023-04-09T12:15:47;2.10;;;1.55;;
48285;SDS011;34102;47.716;10.296;2023-04-09T12:18:12;3.28;;;1.90;;
48285;SDS011;34102;47.716;10.296;2023-04-09T12:23:04;2.67;;;1.75;;
48285;SDS011;34102;47.716;10.296;2023-04-09T12:25:33;2.30;;;1.65;;
48285;SDS011;34102;47.716;10.296;2023-04-09T12:27:59;2.08;;;1.40;;
48285;SDS011;34102;47.716;10.296;2023-04-09T12:30:25;2.05;;;1.67;;
48285;SDS011;34102;47.716;10.296;2023-04-09T12:32:51;1.80;;;1.55;;
48285;SDS011;34102;47.716;10.296;2023-04-09T12:35:17;1.95;;;1.20;;
48285;SDS011;34102;47.716;10.296;2023-04-09T12:37:43;2.53;;;1.23;;
48285;SDS011;34102;47.716;10.296;2023-04-09T12:40:08;3.22;;;2.28;;
48285;SDS011;34102;47.716;10.296;2023-04-09T12:42:34;2.00;;;1.50;;
48285;SDS011;34102;47.716;10.296;2023-04-09T12:45:00;2.15;;;1.40;;
48285;SDS011;34102;47.716;10.296;2023-04-09T12:47:25;2.55;;;1.67;;
48285;SDS011;34102;47.716;10.296;2023-04-09T12:49:52;2.10;;;1.42;;
48285;SDS011;34102;47.716;10.296;2023-04-09T12:52:17;3.83;;;2.10;;
48285;SDS011;34102;47.716;10.296;2023-04-09T12:54:43;1.85;;;1.55;;
48285;SDS011;34102;47.716;10.296;2023-04-09T12:57:09;1.52;;;1.20;;
48285;SDS011;34102;47.716;10.296;2023-04-09T12:59:34;1.85;;;1.27;;
48285;SDS011;34102;47.716;10.296;2023-04-09T13:02:00;3.53;;;2.40;;
48285;SDS011;34102;47.716;10.296;2023-04-09T13:04:25;1.83;;;1.20;;
48285;SDS011;34102;47.716;10.296;2023-04-09T13:06:51;1.60;;;1.20;;
48285;SDS011;34102;47.716;10.296;2023-04-09T13:09:16;1.88;;;1.50;;
48285;SDS011;34102;47.716;10.296;2023-04-09T13:11:42;1.65;;;1.20;;
48285;SDS011;34102;47.716;10.296;2023-04-09T13:14:07;1.85;;;1.02;;
48285;SDS011;34102;47.716;10.296;2023-04-09T13:16:38;2.63;;;1.23;;
48285;SDS011;34102;47.716;10.296;2023-04-09T13:19:03;2.60;;;1.58;;
48285;SDS011;34102;47.716;10.296;2023-04-09T13:21:29;1.60;;;1.23;;
48285;SDS011;34102;47.716;10.296;2023-04-09T13:23:55;2.28;;;1.48;;
48285;SDS011;34102;47.716;10.296;2023-04-09T13:26:20;3.42;;;2.30;;
48285;SDS011;34102;47.716;10.296;2023-04-09T13:28:46;5.22;;;2.65;;
48285;SDS011;34102;47.716;10.296;2023-04-09T13:31:11;6.10;;;2.60;;
48285;SDS011;34102;47.716;10.296;2023-04-09T13:33:36;1.25;;;0.90;;
48285;SDS011;34102;47.716;10.296;2023-04-09T13:36:02;2.08;;;1.27;;
48285;SDS011;34102;47.716;10.296;2023-04-09T13:38:28;2.40;;;1.33;;
48285;SDS011;34102;47.716;10.296;2023-04-09T13:40:53;1.70;;;1.02;;
48285;SDS011;34102;47.716;10.296;2023-04-09T13:43:19;1.00;;;0.77;;
48285;SDS011;34102;47.716;10.296;2023-04-09T13:45:45;1.55;;;1.02;;
48285;SDS011;34102;47.716;10.296;2023-04-09T13:48:11;1.05;;;0.70;;
48285;SDS011;34102;47.716;10.296;2023-04-09T13:50:38;1.55;;;0.95;;
48285;SDS011;34102;47.716;10.296;2023-04-09T13:53:03;1.98;;;0.80;;
48285;SDS011;34102;47.716;10.296;2023-04-09T13:55:29;1.65;;;0.82;;
48285;SDS011;34102;47.716;10.296;2023-04-09T13:57:55;2.33;;;1.00;;
48285;SDS011;34102;47.716;10.296;2023-04-09T14:00:20;2.47;;;1.05;;
48285;SDS011;34102;47.716;10.296;2023-04-09T14:02:46;1.70;;;0.93;;
48285;SDS011;34102;47.716;10.296;2023-04-09T14:05:11;1.08;;;0.77;;
48285;SDS011;34102;47.716;10.296;2023-04-09T14:07:36;1.85;;;0.88;;
48285;SDS011;34102;47.716;10.296;2023-04-09T14:10:02;1.65;;;0.90;;
48285;SDS011;34102;47.716;10.296;2023-04-09T14:12:27;2.35;;;1.02;;
48285;SDS011;34102;47.716;10.296;2023-04-09T14:14:52;1.65;;;1.25;;
48285;SDS011;34102;47.716;10.296;2023-04-09T14:17:18;1.35;;;1.00;;
48285;SDS011;34102;47.716;10.296;2023-04-09T14:19:43;2.20;;;1.20;;
48285;SDS011;34102;47.716;10.296;2023-04-09T14:22:09;1.92;;;1.60;;
48285;SDS011;34102;47.716;10.296;2023-04-09T14:24:35;1.80;;;1.30;;
48285;SDS011;34102;47.716;10.296;2023-04-09T14:27:04;3.17;;;2.05;;
48285;SDS011;34102;47.716;10.296;2023-04-09T14:29:30;2.75;;;2.03;;
48285;SDS011;34102;47.716;10.296;2023-04-09T14:31:56;4.55;;;2.15;;
48285;SDS011;34102;47.716;10.296;2023-04-09T14:34:21;2.45;;;1.83;;
48285;SDS011;34102;47.716;10.296;2023-04-09T14:36:46;3.65;;;2.50;;